Terminal Aerodrome Forecast
Issued by NWS

Current Version | Previous Version | Graphics & Text | Print | Product List | Glossary On
Versions: 1 2 3 4 5 6 7 8 9 10 11 12 13 14 15 16 17 18 19 20 21 22 23 24 25 26 27 28 29 30 31
000
FTUS41 KPBZ 220500
TAFHLG
TAF
KHLG 220523Z 2206/2306 21005KT 6SM BR BKN009 BKN120
      TEMPO 2206/2208 SCT009 BKN120
     FM220800 VRB03KT 4SM BR BKN012
     FM221400 22005KT 6SM -RA VCTS BKN035CB
     FM230000 VRB03KT P6SM BKN040=

USA.gov is the U.S. government's official web portal to all federal, state and local government web resources and services.